sensor_id;sensor_type;location;lat;lon;timestamp;P1;durP1;ratioP1;P2;durP2;ratioP2
23868;SDS011;12115;47.128;15.422;2023-08-31T00:01:01;3.35;;;1.60;;
23868;SDS011;12115;47.128;15.422;2023-08-31T00:03:31;2.95;;;1.42;;
23868;SDS011;12115;47.128;15.422;2023-08-31T00:06:00;3.95;;;1.33;;
23868;SDS011;12115;47.128;15.422;2023-08-31T00:08:28;6.85;;;1.40;;
23868;SDS011;12115;47.128;15.422;2023-08-31T00:10:58;1.15;;;1.10;;
23868;SDS011;12115;47.128;15.422;2023-08-31T00:13:27;3.22;;;1.30;;
23868;SDS011;12115;47.128;15.422;2023-08-31T00:15:56;1.75;;;1.08;;
23868;SDS011;12115;47.128;15.422;2023-08-31T00:18:24;4.55;;;1.30;;
23868;SDS011;12115;47.128;15.422;2023-08-31T00:20:52;4.22;;;1.13;;
23868;SDS011;12115;47.128;15.422;2023-08-31T00:23:19;7.45;;;1.70;;
23868;SDS011;12115;47.128;15.422;2023-08-31T00:25:47;4.03;;;1.30;;
23868;SDS011;12115;47.128;15.422;2023-08-31T00:28:17;1.65;;;1.33;;
23868;SDS011;12115;47.128;15.422;2023-08-31T00:30:45;2.38;;;1.30;;
23868;SDS011;12115;47.128;15.422;2023-08-31T00:33:13;1.60;;;1.10;;
23868;SDS011;12115;47.128;15.422;2023-08-31T00:35:41;6.85;;;1.45;;
23868;SDS011;12115;47.128;15.422;2023-08-31T00:38:12;2.78;;;1.42;;
23868;SDS011;12115;47.128;15.422;2023-08-31T00:40:41;4.80;;;1.60;;
23868;SDS011;12115;47.128;15.422;2023-08-31T00:43:11;1.67;;;1.35;;
23868;SDS011;12115;47.128;15.422;2023-08-31T00:45:41;1.50;;;1.20;;
23868;SDS011;12115;47.128;15.422;2023-08-31T00:48:09;2.42;;;1.50;;
23868;SDS011;12115;47.128;15.422;2023-08-31T00:50:38;3.78;;;1.30;;
23868;SDS011;12115;47.128;15.422;2023-08-31T00:53:05;4.47;;;1.63;;
23868;SDS011;12115;47.128;15.422;2023-08-31T00:55:32;4.38;;;1.20;;
23868;SDS011;12115;47.128;15.422;2023-08-31T01:14:46;1.63;;;1.52;;
23868;SDS011;12115;47.128;15.422;2023-08-31T01:17:18;2.63;;;1.23;;
23868;SDS011;12115;47.128;15.422;2023-08-31T01:19:52;7.22;;;1.40;;
23868;SDS011;12115;47.128;15.422;2023-08-31T01:22:43;2.97;;;1.25;;
23868;SDS011;12115;47.128;15.422;2023-08-31T01:25:18;5.13;;;1.60;;
23868;SDS011;12115;47.128;15.422;2023-08-31T01:27:45;2.17;;;1.63;;
23868;SDS011;12115;47.128;15.422;2023-08-31T01:30:14;3.25;;;1.45;;
23868;SDS011;12115;47.128;15.422;2023-08-31T01:32:44;3.03;;;1.40;;
23868;SDS011;12115;47.128;15.422;2023-08-31T01:35:17;4.38;;;1.75;;
23868;SDS011;12115;47.128;15.422;2023-08-31T01:37:49;2.40;;;1.40;;
23868;SDS011;12115;47.128;15.422;2023-08-31T01:40:22;2.30;;;1.35;;
23868;SDS011;12115;47.128;15.422;2023-08-31T01:42:54;3.70;;;1.40;;
23868;SDS011;12115;47.128;15.422;2023-08-31T01:45:25;1.45;;;1.35;;
23868;SDS011;12115;47.128;15.422;2023-08-31T01:47:53;1.55;;;1.35;;
23868;SDS011;12115;47.128;15.422;2023-08-31T01:50:22;2.28;;;1.40;;
23868;SDS011;12115;47.128;15.422;2023-08-31T01:52:49;1.45;;;1.35;;
23868;SDS011;12115;47.128;15.422;2023-08-31T01:55:16;3.33;;;1.30;;
23868;SDS011;12115;47.128;15.422;2023-08-31T01:57:43;2.88;;;1.40;;
23868;SDS011;12115;47.128;15.422;2023-08-31T02:00:16;4.35;;;1.50;;
23868;SDS011;12115;47.128;15.422;2023-08-31T02:02:48;3.92;;;1.40;;
23868;SDS011;12115;47.128;15.422;2023-08-31T02:05:15;1.58;;;1.00;;
23868;SDS011;12115;47.128;15.422;2023-08-31T02:07:42;3.03;;;1.25;;
23868;SDS011;12115;47.128;15.422;2023-08-31T02:10:09;4.50;;;1.35;;
23868;SDS011;12115;47.128;15.422;2023-08-31T02:12:36;2.63;;;1.30;;
23868;SDS011;12115;47.128;15.422;2023-08-31T02:15:07;3.63;;;1.25;;
23868;SDS011;12115;47.128;15.422;2023-08-31T02:17:36;1.65;;;1.30;;
23868;SDS011;12115;47.128;15.422;2023-08-31T02:20:03;2.78;;;1.35;;
23868;SDS011;12115;47.128;15.422;2023-08-31T02:22:35;1.25;;;1.15;;
23868;SDS011;12115;47.128;15.422;2023-08-31T02:25:05;2.83;;;0.95;;
23868;SDS011;12115;47.128;15.422;2023-08-31T02:27:37;3.58;;;1.35;;
23868;SDS011;12115;47.128;15.422;2023-08-31T02:30:07;1.52;;;1.10;;
23868;SDS011;12115;47.128;15.422;2023-08-31T02:32:35;6.13;;;2.00;;
23868;SDS011;12115;47.128;15.422;2023-08-31T02:35:02;3.22;;;1.33;;
23868;SDS011;12115;47.128;15.422;2023-08-31T02:37:29;2.40;;;1.40;;
23868;SDS011;12115;47.128;15.422;2023-08-31T02:39:56;2.17;;;1.20;;
23868;SDS011;12115;47.128;15.422;2023-08-31T02:42:23;4.45;;;1.40;;
23868;SDS011;12115;47.128;15.422;2023-08-31T02:44:53;3.60;;;1.40;;
23868;SDS011;12115;47.128;15.422;2023-08-31T02:47:20;1.35;;;1.10;;
23868;SDS011;12115;47.128;15.422;2023-08-31T02:49:47;5.57;;;1.58;;
23868;SDS011;12115;47.128;15.422;2023-08-31T02:52:14;3.80;;;1.50;;
23868;SDS011;12115;47.128;15.422;2023-08-31T02:54:41;3.08;;;1.55;;
23868;SDS011;12115;47.128;15.422;2023-08-31T02:57:08;3.35;;;1.70;;
23868;SDS011;12115;47.128;15.422;2023-08-31T02:59:35;1.52;;;1.40;;
23868;SDS011;12115;47.128;15.422;2023-08-31T03:02:02;4.05;;;1.45;;
23868;SDS011;12115;47.128;15.422;2023-08-31T03:04:30;6.72;;;1.83;;
23868;SDS011;12115;47.128;15.422;2023-08-31T03:06:57;3.70;;;1.70;;
23868;SDS011;12115;47.128;15.422;2023-08-31T03:09:24;5.75;;;1.48;;
23868;SDS011;12115;47.128;15.422;2023-08-31T03:11:51;3.50;;;1.88;;
23868;SDS011;12115;47.128;15.422;2023-08-31T03:14:19;4.78;;;1.60;;
23868;SDS011;12115;47.128;15.422;2023-08-31T03:16:46;2.63;;;1.50;;
23868;SDS011;12115;47.128;15.422;2023-08-31T03:19:15;2.53;;;1.38;;
23868;SDS011;12115;47.128;15.422;2023-08-31T03:21:41;6.93;;;1.73;;
23868;SDS011;12115;47.128;15.422;2023-08-31T03:24:08;6.25;;;1.73;;
23868;SDS011;12115;47.128;15.422;2023-08-31T03:26:35;3.53;;;1.67;;
23868;SDS011;12115;47.128;15.422;2023-08-31T03:29:02;4.63;;;1.70;;
23868;SDS011;12115;47.128;15.422;2023-08-31T03:31:29;1.85;;;1.70;;
23868;SDS011;12115;47.128;15.422;2023-08-31T03:33:57;2.60;;;1.80;;
23868;SDS011;12115;47.128;15.422;2023-08-31T03:36:25;1.80;;;1.20;;
23868;SDS011;12115;47.128;15.422;2023-08-31T03:38:52;3.75;;;1.40;;
23868;SDS011;12115;47.128;15.422;2023-08-31T03:41:19;4.55;;;2.05;;
23868;SDS011;12115;47.128;15.422;2023-08-31T03:43:46;1.30;;;1.20;;
23868;SDS011;12115;47.128;15.422;2023-08-31T03:46:13;4.15;;;2.10;;
23868;SDS011;12115;47.128;15.422;2023-08-31T03:48:40;2.25;;;1.42;;
23868;SDS011;12115;47.128;15.422;2023-08-31T03:51:07;6.68;;;1.50;;
23868;SDS011;12115;47.128;15.422;2023-08-31T03:53:33;3.80;;;1.50;;
23868;SDS011;12115;47.128;15.422;2023-08-31T03:56:02;2.08;;;1.65;;
23868;SDS011;12115;47.128;15.422;2023-08-31T03:58:31;5.63;;;1.77;;
23868;SDS011;12115;47.128;15.422;2023-08-31T04:00:57;4.82;;;1.55;;
23868;SDS011;12115;47.128;15.422;2023-08-31T04:03:24;2.97;;;1.20;;
23868;SDS011;12115;47.128;15.422;2023-08-31T04:05:55;1.98;;;1.30;;
23868;SDS011;12115;47.128;15.422;2023-08-31T04:08:22;1.60;;;1.40;;
23868;SDS011;12115;47.128;15.422;2023-08-31T04:10:52;1.77;;;1.40;;
23868;SDS011;12115;47.128;15.422;2023-08-31T04:13:21;3.00;;;1.48;;
23868;SDS011;12115;47.128;15.422;2023-08-31T04:15:48;2.05;;;1.38;;
23868;SDS011;12115;47.128;15.422;2023-08-31T04:18:15;2.97;;;1.25;;
23868;SDS011;12115;47.128;15.422;2023-08-31T04:20:47;2.22;;;1.35;;
23868;SDS011;12115;47.128;15.422;2023-08-31T04:23:18;1.75;;;1.50;;
23868;SDS011;12115;47.128;15.422;2023-08-31T04:25:46;2.72;;;1.70;;
23868;SDS011;12115;47.128;15.422;2023-08-31T04:28:13;4.88;;;1.88;;
23868;SDS011;12115;47.128;15.422;2023-08-31T04:30:40;4.50;;;1.80;;
23868;SDS011;12115;47.128;15.422;2023-08-31T04:33:07;3.13;;;1.42;;
23868;SDS011;12115;47.128;15.422;2023-08-31T04:35:34;2.67;;;1.40;;
23868;SDS011;12115;47.128;15.422;2023-08-31T04:38:01;3.00;;;1.30;;
23868;SDS011;12115;47.128;15.422;2023-08-31T04:40:28;4.15;;;1.40;;
23868;SDS011;12115;47.128;15.422;2023-08-31T04:42:57;1.65;;;1.38;;
23868;SDS011;12115;47.128;15.422;2023-08-31T04:45:24;5.80;;;1.40;;
23868;SDS011;12115;47.128;15.422;2023-08-31T04:47:51;6.80;;;1.85;;
23868;SDS011;12115;47.128;15.422;2023-08-31T04:50:18;5.45;;;1.55;;
23868;SDS011;12115;47.128;15.422;2023-08-31T04:52:45;4.25;;;1.70;;
23868;SDS011;12115;47.128;15.422;2023-08-31T04:55:12;3.42;;;1.40;;
23868;SDS011;12115;47.128;15.422;2023-08-31T04:57:40;2.15;;;1.60;;
23868;SDS011;12115;47.128;15.422;2023-08-31T05:00:07;4.18;;;1.80;;
23868;SDS011;12115;47.128;15.422;2023-08-31T05:02:38;4.95;;;1.38;;
23868;SDS011;12115;47.128;15.422;2023-08-31T05:05:06;3.03;;;1.50;;
23868;SDS011;12115;47.128;15.422;2023-08-31T05:07:33;3.67;;;1.50;;
23868;SDS011;12115;47.128;15.422;2023-08-31T05:10:00;4.93;;;1.63;;
23868;SDS011;12115;47.128;15.422;2023-08-31T05:12:27;1.50;;;1.40;;
23868;SDS011;12115;47.128;15.422;2023-08-31T05:14:54;2.78;;;1.40;;
23868;SDS011;12115;47.128;15.422;2023-08-31T05:17:21;1.90;;;1.70;;
23868;SDS011;12115;47.128;15.422;2023-08-31T05:19:49;1.67;;;1.58;;
23868;SDS011;12115;47.128;15.422;2023-08-31T05:22:17;4.88;;;1.70;;
23868;SDS011;12115;47.128;15.422;2023-08-31T05:24:45;2.92;;;1.23;;
23868;SDS011;12115;47.128;15.422;2023-08-31T05:27:12;4.32;;;1.60;;
23868;SDS011;12115;47.128;15.422;2023-08-31T05:29:39;6.80;;;1.85;;
23868;SDS011;12115;47.128;15.422;2023-08-31T05:32:06;4.22;;;1.85;;
23868;SDS011;12115;47.128;15.422;2023-08-31T05:34:33;2.20;;;1.80;;
23868;SDS011;12115;47.128;15.422;2023-08-31T05:37:04;3.27;;;2.00;;
23868;SDS011;12115;47.128;15.422;2023-08-31T05:39:31;4.80;;;1.58;;
23868;SDS011;12115;47.128;15.422;2023-08-31T05:41:58;5.55;;;2.15;;
23868;SDS011;12115;47.128;15.422;2023-08-31T05:44:27;3.30;;;1.90;;
23868;SDS011;12115;47.128;15.422;2023-08-31T05:46:54;3.50;;;1.70;;
23868;SDS011;12115;47.128;15.422;2023-08-31T05:49:21;3.08;;;1.90;;
23868;SDS011;12115;47.128;15.422;2023-08-31T05:51:49;2.05;;;1.60;;
23868;SDS011;12115;47.128;15.422;2023-08-31T05:54:17;3.17;;;1.90;;
23868;SDS011;12115;47.128;15.422;2023-08-31T05:56:43;3.63;;;2.00;;
23868;SDS011;12115;47.128;15.422;2023-08-31T05:59:13;2.92;;;2.00;;
23868;SDS011;12115;47.128;15.422;2023-08-31T06:01:39;3.35;;;2.00;;
23868;SDS011;12115;47.128;15.422;2023-08-31T06:04:06;4.28;;;2.50;;
23868;SDS011;12115;47.128;15.422;2023-08-31T06:06:33;3.58;;;2.10;;
23868;SDS011;12115;47.128;15.422;2023-08-31T06:09:01;4.63;;;2.25;;
23868;SDS011;12115;47.128;15.422;2023-08-31T06:11:28;1.80;;;1.70;;
23868;SDS011;12115;47.128;15.422;2023-08-31T06:13:55;5.45;;;1.77;;
23868;SDS011;12115;47.128;15.422;2023-08-31T06:16:22;2.97;;;1.85;;
23868;SDS011;12115;47.128;15.422;2023-08-31T06:18:50;2.83;;;2.28;;
23868;SDS011;12115;47.128;15.422;2023-08-31T06:21:18;6.18;;;2.67;;
23868;SDS011;12115;47.128;15.422;2023-08-31T06:23:45;3.72;;;2.83;;
23868;SDS011;12115;47.128;15.422;2023-08-31T06:26:11;3.30;;;2.78;;
23868;SDS011;12115;47.128;15.422;2023-08-31T06:28:38;4.00;;;3.22;;
23868;SDS011;12115;47.128;15.422;2023-08-31T06:31:05;3.08;;;2.47;;
23868;SDS011;12115;47.128;15.422;2023-08-31T06:33:32;4.15;;;3.08;;
23868;SDS011;12115;47.128;15.422;2023-08-31T06:35:59;6.65;;;3.20;;
23868;SDS011;12115;47.128;15.422;2023-08-31T06:38:26;5.05;;;3.20;;
23868;SDS011;12115;47.128;15.422;2023-08-31T06:40:53;3.85;;;2.83;;
23868;SDS011;12115;47.128;15.422;2023-08-31T06:43:25;4.65;;;3.13;;
23868;SDS011;12115;47.128;15.422;2023-08-31T06:45:55;4.90;;;2.95;;
23868;SDS011;12115;47.128;15.422;2023-08-31T06:48:29;5.07;;;3.25;;
23868;SDS011;12115;47.128;15.422;2023-08-31T06:50:56;10.93;;;3.35;;
23868;SDS011;12115;47.128;15.422;2023-08-31T06:53:23;6.07;;;3.17;;
23868;SDS011;12115;47.128;15.422;2023-08-31T06:55:50;5.82;;;2.95;;
23868;SDS011;12115;47.128;15.422;2023-08-31T06:58:18;4.28;;;3.15;;
23868;SDS011;12115;47.128;15.422;2023-08-31T07:00:45;6.55;;;3.10;;
23868;SDS011;12115;47.128;15.422;2023-08-31T07:03:13;3.38;;;3.08;;
23868;SDS011;12115;47.128;15.422;2023-08-31T07:05:41;3.50;;;2.55;;
23868;SDS011;12115;47.128;15.422;2023-08-31T07:08:09;2.85;;;2.47;;
23868;SDS011;12115;47.128;15.422;2023-08-31T07:10:36;5.97;;;2.70;;
23868;SDS011;12115;47.128;15.422;2023-08-31T07:13:04;5.25;;;2.60;;
23868;SDS011;12115;47.128;15.422;2023-08-31T07:15:31;5.57;;;3.28;;
23868;SDS011;12115;47.128;15.422;2023-08-31T07:17:59;3.60;;;2.30;;
23868;SDS011;12115;47.128;15.422;2023-08-31T07:20:26;4.20;;;2.42;;
23868;SDS011;12115;47.128;15.422;2023-08-31T07:22:53;5.38;;;2.60;;
23868;SDS011;12115;47.128;15.422;2023-08-31T07:25:21;3.63;;;2.33;;
23868;SDS011;12115;47.128;15.422;2023-08-31T07:27:48;5.88;;;2.58;;
23868;SDS011;12115;47.128;15.422;2023-08-31T07:30:14;6.10;;;2.63;;
23868;SDS011;12115;47.128;15.422;2023-08-31T07:32:41;3.75;;;2.30;;
23868;SDS011;12115;47.128;15.422;2023-08-31T07:35:08;4.85;;;2.33;;
23868;SDS011;12115;47.128;15.422;2023-08-31T07:37:35;4.80;;;2.33;;
23868;SDS011;12115;47.128;15.422;2023-08-31T07:40:04;4.57;;;2.20;;
23868;SDS011;12115;47.128;15.422;2023-08-31T07:42:35;4.90;;;2.45;;
23868;SDS011;12115;47.128;15.422;2023-08-31T07:45:02;2.92;;;2.10;;
23868;SDS011;12115;47.128;15.422;2023-08-31T07:47:31;4.72;;;2.60;;
23868;SDS011;12115;47.128;15.422;2023-08-31T07:50:01;3.72;;;2.58;;
23868;SDS011;12115;47.128;15.422;2023-08-31T07:52:34;5.88;;;2.42;;
23868;SDS011;12115;47.128;15.422;2023-08-31T07:55:01;5.60;;;3.05;;
23868;SDS011;12115;47.128;15.422;2023-08-31T07:57:28;2.97;;;2.13;;
23868;SDS011;12115;47.128;15.422;2023-08-31T07:59:55;4.53;;;2.38;;
23868;SDS011;12115;47.128;15.422;2023-08-31T08:02:22;8.05;;;2.70;;
23868;SDS011;12115;47.128;15.422;2023-08-31T08:04:49;4.85;;;2.53;;
23868;SDS011;12115;47.128;15.422;2023-08-31T08:07:16;3.97;;;2.30;;
23868;SDS011;12115;47.128;15.422;2023-08-31T08:09:43;6.10;;;2.03;;
23868;SDS011;12115;47.128;15.422;2023-08-31T08:12:10;3.05;;;2.10;;
23868;SDS011;12115;47.128;15.422;2023-08-31T08:14:37;3.60;;;2.55;;
23868;SDS011;12115;47.128;15.422;2023-08-31T08:17:04;3.88;;;2.15;;
23868;SDS011;12115;47.128;15.422;2023-08-31T08:19:31;3.78;;;2.22;;
23868;SDS011;12115;47.128;15.422;2023-08-31T08:21:58;4.07;;;1.90;;
23868;SDS011;12115;47.128;15.422;2023-08-31T08:24:28;2.05;;;1.77;;
23868;SDS011;12115;47.128;15.422;2023-08-31T08:26:54;2.90;;;1.98;;
23868;SDS011;12115;47.128;15.422;2023-08-31T08:29:21;5.00;;;2.00;;
23868;SDS011;12115;47.128;15.422;2023-08-31T08:31:48;2.10;;;1.90;;
23868;SDS011;12115;47.128;15.422;2023-08-31T08:34:15;4.75;;;1.70;;
23868;SDS011;12115;47.128;15.422;2023-08-31T08:36:42;4.18;;;1.83;;
23868;SDS011;12115;47.128;15.422;2023-08-31T08:39:09;3.80;;;1.52;;
23868;SDS011;12115;47.128;15.422;2023-08-31T08:41:36;3.55;;;1.67;;
23868;SDS011;12115;47.128;15.422;2023-08-31T08:44:03;2.00;;;1.45;;
23868;SDS011;12115;47.128;15.422;2023-08-31T08:46:33;3.08;;;1.35;;
23868;SDS011;12115;47.128;15.422;2023-08-31T08:49:01;1.92;;;1.40;;
23868;SDS011;12115;47.128;15.422;2023-08-31T08:51:30;1.48;;;1.17;;
23868;SDS011;12115;47.128;15.422;2023-08-31T08:54:00;2.00;;;1.40;;
23868;SDS011;12115;47.128;15.422;2023-08-31T08:56:27;1.70;;;1.40;;
23868;SDS011;12115;47.128;15.422;2023-08-31T08:58:54;2.15;;;1.40;;
23868;SDS011;12115;47.128;15.422;2023-08-31T09:01:21;3.97;;;1.50;;
23868;SDS011;12115;47.128;15.422;2023-08-31T09:03:51;4.00;;;1.58;;
23868;SDS011;12115;47.128;15.422;2023-08-31T09:06:19;2.00;;;1.50;;
23868;SDS011;12115;47.128;15.422;2023-08-31T09:08:52;4.80;;;1.40;;
23868;SDS011;12115;47.128;15.422;2023-08-31T09:11:23;4.25;;;1.63;;
23868;SDS011;12115;47.128;15.422;2023-08-31T09:13:51;2.58;;;1.48;;
23868;SDS011;12115;47.128;15.422;2023-08-31T09:18:52;1.58;;;1.38;;
23868;SDS011;12115;47.128;15.422;2023-08-31T09:21:21;2.08;;;1.30;;
23868;SDS011;12115;47.128;15.422;2023-08-31T09:23:58;1.45;;;1.23;;
23868;SDS011;12115;47.128;15.422;2023-08-31T09:26:25;3.60;;;1.10;;
23868;SDS011;12115;47.128;15.422;2023-08-31T09:28:52;1.13;;;0.95;;
23868;SDS011;12115;47.128;15.422;2023-08-31T09:31:19;3.15;;;1.30;;
23868;SDS011;12115;47.128;15.422;2023-08-31T09:33:51;2.55;;;0.80;;
23868;SDS011;12115;47.128;15.422;2023-08-31T09:36:19;1.58;;;0.90;;
23868;SDS011;12115;47.128;15.422;2023-08-31T09:38:47;2.70;;;1.08;;
23868;SDS011;12115;47.128;15.422;2023-08-31T09:41:14;1.33;;;0.77;;
23868;SDS011;12115;47.128;15.422;2023-08-31T09:43:41;2.92;;;0.82;;
23868;SDS011;12115;47.128;15.422;2023-08-31T09:46:09;2.85;;;0.90;;
23868;SDS011;12115;47.128;15.422;2023-08-31T09:48:40;0.98;;;0.88;;
23868;SDS011;12115;47.128;15.422;2023-08-31T09:51:10;1.58;;;1.00;;
23868;SDS011;12115;47.128;15.422;2023-08-31T09:53:37;2.97;;;1.20;;
23868;SDS011;12115;47.128;15.422;2023-08-31T09:56:05;1.77;;;1.08;;
23868;SDS011;12115;47.128;15.422;2023-08-31T09:58:33;2.05;;;1.13;;
23868;SDS011;12115;47.128;15.422;2023-08-31T10:01:01;1.05;;;0.90;;
23868;SDS011;12115;47.128;15.422;2023-08-31T10:03:35;3.08;;;1.08;;
23868;SDS011;12115;47.128;15.422;2023-08-31T10:06:03;5.65;;;1.08;;
23868;SDS011;12115;47.128;15.422;2023-08-31T10:08:31;3.13;;;1.52;;
23868;SDS011;12115;47.128;15.422;2023-08-31T10:10:59;5.75;;;1.13;;
23868;SDS011;12115;47.128;15.422;2023-08-31T10:13:31;1.30;;;0.85;;
23868;SDS011;12115;47.128;15.422;2023-08-31T10:16:05;1.13;;;1.00;;
23868;SDS011;12115;47.128;15.422;2023-08-31T10:18:36;1.27;;;0.90;;
23868;SDS011;12115;47.128;15.422;2023-08-31T10:21:04;2.22;;;1.20;;
23868;SDS011;12115;47.128;15.422;2023-08-31T10:23:31;0.85;;;0.80;;
23868;SDS011;12115;47.128;15.422;2023-08-31T10:25:59;1.48;;;0.77;;
23868;SDS011;12115;47.128;15.422;2023-08-31T10:28:27;1.92;;;1.00;;
23868;SDS011;12115;47.128;15.422;2023-08-31T10:31:10;1.35;;;0.88;;
23868;SDS011;12115;47.128;15.422;2023-08-31T10:33:46;1.05;;;0.70;;
23868;SDS011;12115;47.128;15.422;2023-08-31T10:36:20;1.50;;;1.02;;
23868;SDS011;12115;47.128;15.422;2023-08-31T10:38:59;1.23;;;0.90;;
23868;SDS011;12115;47.128;15.422;2023-08-31T10:41:32;1.90;;;0.90;;
23868;SDS011;12115;47.128;15.422;2023-08-31T10:44:17;1.45;;;1.30;;
23868;SDS011;12115;47.128;15.422;2023-08-31T10:46:46;1.42;;;0.65;;
23868;SDS011;12115;47.128;15.422;2023-08-31T10:49:14;1.63;;;1.10;;
23868;SDS011;12115;47.128;15.422;2023-08-31T10:51:44;2.35;;;1.00;;
23868;SDS011;12115;47.128;15.422;2023-08-31T10:54:22;3.08;;;1.10;;
23868;SDS011;12115;47.128;15.422;2023-08-31T10:56:55;0.98;;;0.82;;
23868;SDS011;12115;47.128;15.422;2023-08-31T10:59:41;1.90;;;0.90;;
23868;SDS011;12115;47.128;15.422;2023-08-31T11:02:09;3.00;;;1.27;;
23868;SDS011;12115;47.128;15.422;2023-08-31T11:04:58;6.53;;;1.20;;
23868;SDS011;12115;47.128;15.422;2023-08-31T11:07:33;1.77;;;1.00;;
23868;SDS011;12115;47.128;15.422;2023-08-31T11:12:52;2.03;;;1.13;;
23868;SDS011;12115;47.128;15.422;2023-08-31T11:15:21;0.80;;;0.80;;
23868;SDS011;12115;47.128;15.422;2023-08-31T11:17:50;3.00;;;0.80;;
23868;SDS011;12115;47.128;15.422;2023-08-31T11:20:23;3.90;;;1.13;;
23868;SDS011;12115;47.128;15.422;2023-08-31T11:22:54;2.92;;;1.13;;
23868;SDS011;12115;47.128;15.422;2023-08-31T11:25:22;1.48;;;0.75;;
23868;SDS011;12115;47.128;15.422;2023-08-31T11:27:56;1.40;;;1.08;;
23868;SDS011;12115;47.128;15.422;2023-08-31T11:30:24;2.60;;;1.27;;
23868;SDS011;12115;47.128;15.422;2023-08-31T11:32:53;2.60;;;1.30;;
23868;SDS011;12115;47.128;15.422;2023-08-31T11:35:22;3.42;;;1.00;;
23868;SDS011;12115;47.128;15.422;2023-08-31T11:37:51;1.05;;;0.90;;
23868;SDS011;12115;47.128;15.422;2023-08-31T11:40:25;2.13;;;1.00;;
23868;SDS011;12115;47.128;15.422;2023-08-31T11:42:59;1.27;;;1.15;;
23868;SDS011;12115;47.128;15.422;2023-08-31T11:45:35;1.40;;;0.80;;
23868;SDS011;12115;47.128;15.422;2023-08-31T11:48:05;1.50;;;1.10;;
23868;SDS011;12115;47.128;15.422;2023-08-31T11:50:33;1.17;;;0.90;;
23868;SDS011;12115;47.128;15.422;2023-08-31T11:53:06;1.13;;;1.00;;
23868;SDS011;12115;47.128;15.422;2023-08-31T11:55:33;1.45;;;1.00;;
23868;SDS011;12115;47.128;15.422;2023-08-31T11:58:00;1.08;;;0.98;;
23868;SDS011;12115;47.128;15.422;2023-08-31T12:00:27;1.63;;;1.10;;
23868;SDS011;12115;47.128;15.422;2023-08-31T12:02:58;2.38;;;1.02;;
23868;SDS011;12115;47.128;15.422;2023-08-31T12:05:26;2.53;;;0.90;;
23868;SDS011;12115;47.128;15.422;2023-08-31T12:07:54;2.53;;;1.00;;
23868;SDS011;12115;47.128;15.422;2023-08-31T12:10:23;3.58;;;1.17;;
23868;SDS011;12115;47.128;15.422;2023-08-31T12:12:51;3.70;;;1.00;;
23868;SDS011;12115;47.128;15.422;2023-08-31T12:15:19;1.58;;;0.82;;
23868;SDS011;12115;47.128;15.422;2023-08-31T12:17:49;1.92;;;0.90;;
23868;SDS011;12115;47.128;15.422;2023-08-31T12:20:24;1.10;;;0.90;;
23868;SDS011;12115;47.128;15.422;2023-08-31T12:22:55;3.10;;;0.98;;
23868;SDS011;12115;47.128;15.422;2023-08-31T12:25:22;2.05;;;1.05;;
23868;SDS011;12115;47.128;15.422;2023-08-31T12:27:50;1.67;;;0.90;;
23868;SDS011;12115;47.128;15.422;2023-08-31T12:30:20;2.25;;;1.08;;
23868;SDS011;12115;47.128;15.422;2023-08-31T12:32:47;2.95;;;1.23;;
23868;SDS011;12115;47.128;15.422;2023-08-31T12:35:14;3.85;;;1.00;;
23868;SDS011;12115;47.128;15.422;2023-08-31T12:37:42;2.05;;;0.98;;
23868;SDS011;12115;47.128;15.422;2023-08-31T12:40:09;1.23;;;0.80;;
23868;SDS011;12115;47.128;15.422;2023-08-31T12:42:36;1.45;;;1.05;;
23868;SDS011;12115;47.128;15.422;2023-08-31T12:45:03;1.42;;;0.73;;
23868;SDS011;12115;47.128;15.422;2023-08-31T12:47:32;2.00;;;1.13;;
23868;SDS011;12115;47.128;15.422;2023-08-31T12:50:00;1.20;;;0.70;;
23868;SDS011;12115;47.128;15.422;2023-08-31T12:52:29;1.00;;;0.80;;
23868;SDS011;12115;47.128;15.422;2023-08-31T12:54:56;3.00;;;0.88;;
23868;SDS011;12115;47.128;15.422;2023-08-31T12:57:23;1.85;;;1.00;;
23868;SDS011;12115;47.128;15.422;2023-08-31T12:59:50;1.85;;;0.90;;
23868;SDS011;12115;47.128;15.422;2023-08-31T13:02:17;1.45;;;0.90;;
23868;SDS011;12115;47.128;15.422;2023-08-31T13:04:46;1.77;;;1.00;;
23868;SDS011;12115;47.128;15.422;2023-08-31T13:07:13;1.30;;;0.80;;
23868;SDS011;12115;47.128;15.422;2023-08-31T13:09:40;2.15;;;0.82;;
23868;SDS011;12115;47.128;15.422;2023-08-31T13:12:07;1.08;;;0.90;;
23868;SDS011;12115;47.128;15.422;2023-08-31T13:14:34;3.03;;;1.05;;
23868;SDS011;12115;47.128;15.422;2023-08-31T13:17:01;3.63;;;1.30;;
23868;SDS011;12115;47.128;15.422;2023-08-31T13:19:30;1.35;;;1.20;;
23868;SDS011;12115;47.128;15.422;2023-08-31T13:21:57;3.53;;;1.13;;
23868;SDS011;12115;47.128;15.422;2023-08-31T13:24:24;1.50;;;1.08;;
23868;SDS011;12115;47.128;15.422;2023-08-31T13:26:51;1.00;;;0.90;;
23868;SDS011;12115;47.128;15.422;2023-08-31T13:29:18;1.95;;;1.00;;
23868;SDS011;12115;47.128;15.422;2023-08-31T13:31:45;3.10;;;1.35;;
23868;SDS011;12115;47.128;15.422;2023-08-31T13:34:12;3.28;;;0.90;;
23868;SDS011;12115;47.128;15.422;2023-08-31T13:36:40;1.10;;;0.82;;
23868;SDS011;12115;47.128;15.422;2023-08-31T13:39:07;2.90;;;1.38;;
23868;SDS011;12115;47.128;15.422;2023-08-31T13:41:34;1.52;;;1.10;;
23868;SDS011;12115;47.128;15.422;2023-08-31T13:44:02;4.63;;;1.55;;
23868;SDS011;12115;47.128;15.422;2023-08-31T13:46:29;2.47;;;1.08;;
23868;SDS011;12115;47.128;15.422;2023-08-31T13:48:58;2.03;;;0.93;;
23868;SDS011;12115;47.128;15.422;2023-08-31T13:51:25;3.35;;;1.10;;
23868;SDS011;12115;47.128;15.422;2023-08-31T13:53:52;1.40;;;0.90;;
23868;SDS011;12115;47.128;15.422;2023-08-31T13:56:19;1.77;;;1.00;;
23868;SDS011;12115;47.128;15.422;2023-08-31T13:58:46;1.60;;;1.00;;
23868;SDS011;12115;47.128;15.422;2023-08-31T14:01:15;2.85;;;0.98;;
23868;SDS011;12115;47.128;15.422;2023-08-31T14:03:43;3.33;;;1.10;;
23868;SDS011;12115;47.128;15.422;2023-08-31T14:06:11;4.97;;;1.15;;
23868;SDS011;12115;47.128;15.422;2023-08-31T14:08:41;2.47;;;1.00;;
23868;SDS011;12115;47.128;15.422;2023-08-31T14:11:09;1.67;;;0.88;;
23868;SDS011;12115;47.128;15.422;2023-08-31T14:13:36;1.58;;;0.88;;
23868;SDS011;12115;47.128;15.422;2023-08-31T14:16:04;2.55;;;1.10;;
23868;SDS011;12115;47.128;15.422;2023-08-31T14:18:36;1.67;;;0.90;;
23868;SDS011;12115;47.128;15.422;2023-08-31T14:21:04;1.27;;;1.00;;
23868;SDS011;12115;47.128;15.422;2023-08-31T14:23:41;1.55;;;1.10;;
23868;SDS011;12115;47.128;15.422;2023-08-31T14:26:08;1.15;;;1.05;;
23868;SDS011;12115;47.128;15.422;2023-08-31T14:28:37;1.45;;;1.10;;
23868;SDS011;12115;47.128;15.422;2023-08-31T14:31:05;1.45;;;0.88;;
23868;SDS011;12115;47.128;15.422;2023-08-31T14:33:35;1.67;;;0.95;;
23868;SDS011;12115;47.128;15.422;2023-08-31T14:36:04;1.63;;;1.10;;
23868;SDS011;12115;47.128;15.422;2023-08-31T14:38:32;1.70;;;0.80;;
23868;SDS011;12115;47.128;15.422;2023-08-31T14:41:01;1.52;;;0.80;;
23868;SDS011;12115;47.128;15.422;2023-08-31T14:43:30;3.33;;;1.20;;
23868;SDS011;12115;47.128;15.422;2023-08-31T14:46:00;3.50;;;1.05;;
23868;SDS011;12115;47.128;15.422;2023-08-31T14:48:31;1.17;;;0.88;;
23868;SDS011;12115;47.128;15.422;2023-08-31T14:51:00;1.52;;;1.00;;
23868;SDS011;12115;47.128;15.422;2023-08-31T14:53:29;1.55;;;1.23;;
23868;SDS011;12115;47.128;15.422;2023-08-31T14:58:31;3.40;;;1.30;;
23868;SDS011;12115;47.128;15.422;2023-08-31T15:01:00;2.78;;;1.10;;
23868;SDS011;12115;47.128;15.422;2023-08-31T15:03:29;2.05;;;0.80;;
23868;SDS011;12115;47.128;15.422;2023-08-31T15:05:58;0.90;;;0.80;;